sensor_id;sensor_type;location;lat;lon;timestamp;pressure;altitude;pressure_sealevel;temperature;humidity
54600;BME280;40500;51.084;16.958;2022-08-24T00:00:23;100565.88;;;19.33;100.00
54600;BME280;40500;51.084;16.958;2022-08-24T00:02:52;100567.79;;;19.34;100.00
54600;BME280;40500;51.084;16.958;2022-08-24T00:05:23;100567.86;;;19.36;100.00
54600;BME280;40500;51.084;16.958;2022-08-24T00:07:53;100566.41;;;19.37;100.00
54600;BME280;40500;51.084;16.958;2022-08-24T00:10:21;100567.15;;;19.37;100.00
54600;BME280;40500;51.084;16.958;2022-08-24T00:12:50;100566.13;;;19.35;100.00
54600;BME280;40500;51.084;16.958;2022-08-24T00:15:18;100564.14;;;19.33;100.00
54600;BME280;40500;51.084;16.958;2022-08-24T00:17:47;100566.20;;;19.34;100.00
54600;BME280;40500;51.084;16.958;2022-08-24T00:20:17;100569.45;;;19.33;100.00
54600;BME280;40500;51.084;16.958;2022-08-24T00:22:46;100570.02;;;19.32;100.00
54600;BME280;40500;51.084;16.958;2022-08-24T00:25:19;100567.04;;;19.32;100.00
54600;BME280;40500;51.084;16.958;2022-08-24T00:27:53;100562.58;;;19.32;100.00
54600;BME280;40500;51.084;16.958;2022-08-24T00:30:21;100563.81;;;19.32;100.00
54600;BME280;40500;51.084;16.958;2022-08-24T00:32:51;100563.20;;;19.30;100.00
54600;BME280;40500;51.084;16.958;2022-08-24T00:35:22;100557.04;;;19.29;100.00
54600;BME280;40500;51.084;16.958;2022-08-24T00:37:51;100553.50;;;19.29;100.00
54600;BME280;40500;51.084;16.958;2022-08-24T00:40:22;100549.19;;;19.30;100.00
54600;BME280;40500;51.084;16.958;2022-08-24T00:42:52;100548.39;;;19.31;100.00
54600;BME280;40500;51.084;16.958;2022-08-24T00:45:23;100545.34;;;19.29;100.00
54600;BME280;40500;51.084;16.958;2022-08-24T00:48:01;100538.70;;;19.30;100.00
54600;BME280;40500;51.084;16.958;2022-08-24T00:50:36;100537.28;;;19.30;100.00
54600;BME280;40500;51.084;16.958;2022-08-24T00:53:09;100537.64;;;19.30;100.00
54600;BME280;40500;51.084;16.958;2022-08-24T00:55:40;100542.42;;;19.30;100.00
54600;BME280;40500;51.084;16.958;2022-08-24T00:58:13;100543.33;;;19.30;100.00
54600;BME280;40500;51.084;16.958;2022-08-24T01:00:52;100543.66;;;19.30;100.00
54600;BME280;40500;51.084;16.958;2022-08-24T01:03:22;100543.10;;;19.31;100.00
54600;BME280;40500;51.084;16.958;2022-08-24T01:05:54;100539.25;;;19.30;100.00
54600;BME280;40500;51.084;16.958;2022-08-24T01:08:27;100538.25;;;19.29;100.00
54600;BME280;40500;51.084;16.958;2022-08-24T01:11:00;100538.29;;;19.28;100.00
54600;BME280;40500;51.084;16.958;2022-08-24T01:13:30;100534.94;;;19.27;100.00
54600;BME280;40500;51.084;16.958;2022-08-24T01:16:02;100540.21;;;19.28;100.00
54600;BME280;40500;51.084;16.958;2022-08-24T01:18:33;100540.57;;;19.29;100.00
54600;BME280;40500;51.084;16.958;2022-08-24T01:21:21;100539.16;;;19.28;100.00
54600;BME280;40500;51.084;16.958;2022-08-24T01:23:51;100537.98;;;19.27;100.00
54600;BME280;40500;51.084;16.958;2022-08-24T01:26:25;100540.52;;;19.26;100.00
54600;BME280;40500;51.084;16.958;2022-08-24T01:29:02;100540.02;;;19.25;100.00
54600;BME280;40500;51.084;16.958;2022-08-24T01:31:33;100534.14;;;19.26;100.00
54600;BME280;40500;51.084;16.958;2022-08-24T01:34:04;100530.14;;;19.24;100.00
54600;BME280;40500;51.084;16.958;2022-08-24T01:36:38;100525.33;;;19.24;100.00
54600;BME280;40500;51.084;16.958;2022-08-24T01:39:10;100524.70;;;19.23;100.00
54600;BME280;40500;51.084;16.958;2022-08-24T01:41:39;100524.70;;;19.23;100.00
54600;BME280;40500;51.084;16.958;2022-08-24T01:44:08;100521.71;;;19.22;100.00
54600;BME280;40500;51.084;16.958;2022-08-24T01:46:36;100525.50;;;19.24;100.00
54600;BME280;40500;51.084;16.958;2022-08-24T01:49:06;100527.36;;;19.23;100.00
54600;BME280;40500;51.084;16.958;2022-08-24T01:51:35;100529.10;;;19.23;100.00
54600;BME280;40500;51.084;16.958;2022-08-24T01:54:04;100527.58;;;19.22;100.00
54600;BME280;40500;51.084;16.958;2022-08-24T01:56:34;100529.64;;;19.23;100.00
54600;BME280;40500;51.084;16.958;2022-08-24T01:59:06;100529.95;;;19.24;100.00
54600;BME280;40500;51.084;16.958;2022-08-24T02:01:37;100537.38;;;19.25;100.00
54600;BME280;40500;51.084;16.958;2022-08-24T02:04:08;100537.37;;;19.28;100.00
54600;BME280;40500;51.084;16.958;2022-08-24T02:06:36;100536.59;;;19.26;100.00
54600;BME280;40500;51.084;16.958;2022-08-24T02:09:05;100543.06;;;19.24;100.00
54600;BME280;40500;51.084;16.958;2022-08-24T02:11:36;100541.21;;;19.23;100.00
54600;BME280;40500;51.084;16.958;2022-08-24T02:14:06;100545.41;;;19.24;100.00
54600;BME280;40500;51.084;16.958;2022-08-24T02:16:40;100541.75;;;19.22;100.00
54600;BME280;40500;51.084;16.958;2022-08-24T02:19:11;100545.83;;;19.23;100.00
54600;BME280;40500;51.084;16.958;2022-08-24T02:21:39;100555.73;;;19.24;100.00
54600;BME280;40500;51.084;16.958;2022-08-24T02:24:08;100559.07;;;19.24;100.00
54600;BME280;40500;51.084;16.958;2022-08-24T02:26:37;100560.55;;;19.27;100.00
54600;BME280;40500;51.084;16.958;2022-08-24T02:29:07;100567.47;;;19.27;100.00
54600;BME280;40500;51.084;16.958;2022-08-24T02:31:36;100570.70;;;19.29;100.00
54600;BME280;40500;51.084;16.958;2022-08-24T02:34:05;100574.00;;;19.31;100.00
54600;BME280;40500;51.084;16.958;2022-08-24T02:36:37;100573.31;;;19.34;100.00
54600;BME280;40500;51.084;16.958;2022-08-24T02:39:06;100578.89;;;19.29;100.00
54600;BME280;40500;51.084;16.958;2022-08-24T02:41:34;100585.00;;;19.27;100.00
54600;BME280;40500;51.084;16.958;2022-08-24T02:44:05;100584.66;;;19.27;100.00
54600;BME280;40500;51.084;16.958;2022-08-24T02:46:35;100582.89;;;19.30;100.00
54600;BME280;40500;51.084;16.958;2022-08-24T02:49:05;100579.53;;;19.30;100.00
54600;BME280;40500;51.084;16.958;2022-08-24T02:51:40;100576.91;;;19.33;100.00
54600;BME280;40500;51.084;16.958;2022-08-24T02:54:13;100578.98;;;19.34;100.00
54600;BME280;40500;51.084;16.958;2022-08-24T02:56:46;100578.64;;;19.27;100.00
54600;BME280;40500;51.084;16.958;2022-08-24T02:59:16;100576.22;;;19.26;100.00
54600;BME280;40500;51.084;16.958;2022-08-24T03:01:50;100572.92;;;19.31;100.00
54600;BME280;40500;51.084;16.958;2022-08-24T03:04:21;100571.75;;;19.37;100.00
54600;BME280;40500;51.084;16.958;2022-08-24T03:06:51;100573.28;;;19.38;100.00
54600;BME280;40500;51.084;16.958;2022-08-24T03:09:19;100570.23;;;19.43;100.00
54600;BME280;40500;51.084;16.958;2022-08-24T03:11:51;100568.52;;;19.41;100.00
54600;BME280;40500;51.084;16.958;2022-08-24T03:14:19;100575.90;;;19.46;100.00
54600;BME280;40500;51.084;16.958;2022-08-24T03:16:47;100578.71;;;19.47;100.00
54600;BME280;40500;51.084;16.958;2022-08-24T03:19:15;100580.15;;;19.47;100.00
54600;BME280;40500;51.084;16.958;2022-08-24T03:21:43;100586.70;;;19.51;100.00
54600;BME280;40500;51.084;16.958;2022-08-24T03:24:13;100590.20;;;19.52;100.00
54600;BME280;40500;51.084;16.958;2022-08-24T03:26:41;100586.26;;;19.49;100.00
54600;BME280;40500;51.084;16.958;2022-08-24T03:29:14;100591.73;;;19.49;100.00
54600;BME280;40500;51.084;16.958;2022-08-24T03:31:44;100592.48;;;19.49;100.00
54600;BME280;40500;51.084;16.958;2022-08-24T03:34:15;100591.62;;;19.48;100.00
54600;BME280;40500;51.084;16.958;2022-08-24T03:36:46;100597.16;;;19.48;100.00
54600;BME280;40500;51.084;16.958;2022-08-24T03:39:16;100594.31;;;19.48;100.00
54600;BME280;40500;51.084;16.958;2022-08-24T03:41:48;100593.42;;;19.48;100.00
54600;BME280;40500;51.084;16.958;2022-08-24T03:44:19;100595.99;;;19.46;100.00
54600;BME280;40500;51.084;16.958;2022-08-24T03:46:53;100598.39;;;19.41;100.00
54600;BME280;40500;51.084;16.958;2022-08-24T03:49:22;100604.10;;;19.40;100.00
54600;BME280;40500;51.084;16.958;2022-08-24T03:51:51;100607.37;;;19.39;100.00
54600;BME280;40500;51.084;16.958;2022-08-24T03:54:21;100614.05;;;19.40;100.00
54600;BME280;40500;51.084;16.958;2022-08-24T03:56:50;100613.22;;;19.46;100.00
54600;BME280;40500;51.084;16.958;2022-08-24T03:59:21;100613.74;;;19.46;100.00
54600;BME280;40500;51.084;16.958;2022-08-24T04:01:49;100616.27;;;19.46;100.00
54600;BME280;40500;51.084;16.958;2022-08-24T04:04:19;100619.94;;;19.43;100.00
54600;BME280;40500;51.084;16.958;2022-08-24T04:06:48;100623.92;;;19.41;100.00
54600;BME280;40500;51.084;16.958;2022-08-24T04:09:18;100625.06;;;19.44;100.00
54600;BME280;40500;51.084;16.958;2022-08-24T04:11:47;100626.45;;;19.48;100.00
54600;BME280;40500;51.084;16.958;2022-08-24T04:14:22;100623.55;;;19.49;100.00
54600;BME280;40500;51.084;16.958;2022-08-24T04:16:54;100623.98;;;19.48;100.00
54600;BME280;40500;51.084;16.958;2022-08-24T04:19:27;100617.92;;;19.48;100.00
54600;BME280;40500;51.084;16.958;2022-08-24T04:21:57;100619.81;;;19.53;100.00
54600;BME280;40500;51.084;16.958;2022-08-24T04:24:27;100621.37;;;19.50;100.00
54600;BME280;40500;51.084;16.958;2022-08-24T04:26:56;100620.34;;;19.49;100.00
54600;BME280;40500;51.084;16.958;2022-08-24T04:29:24;100622.96;;;19.39;100.00
54600;BME280;40500;51.084;16.958;2022-08-24T04:31:56;100625.96;;;19.43;100.00
54600;BME280;40500;51.084;16.958;2022-08-24T04:34:29;100631.30;;;19.47;100.00
54600;BME280;40500;51.084;16.958;2022-08-24T04:36:57;100631.90;;;19.45;100.00
54600;BME280;40500;51.084;16.958;2022-08-24T04:39:26;100629.09;;;19.45;100.00
54600;BME280;40500;51.084;16.958;2022-08-24T04:41:56;100633.19;;;19.45;100.00
54600;BME280;40500;51.084;16.958;2022-08-24T04:44:30;100631.25;;;19.54;100.00
54600;BME280;40500;51.084;16.958;2022-08-24T04:47:01;100635.25;;;19.49;100.00
54600;BME280;40500;51.084;16.958;2022-08-24T04:49:31;100631.33;;;19.53;100.00
54600;BME280;40500;51.084;16.958;2022-08-24T04:52:02;100635.45;;;19.52;100.00
54600;BME280;40500;51.084;16.958;2022-08-24T04:54:34;100632.08;;;19.52;100.00
54600;BME280;40500;51.084;16.958;2022-08-24T04:57:04;100640.02;;;19.53;100.00
54600;BME280;40500;51.084;16.958;2022-08-24T04:59:34;100638.38;;;19.54;100.00
54600;BME280;40500;51.084;16.958;2022-08-24T05:02:06;100627.41;;;19.53;100.00
54600;BME280;40500;51.084;16.958;2022-08-24T05:04:36;100632.70;;;19.54;100.00
54600;BME280;40500;51.084;16.958;2022-08-24T05:07:05;100629.98;;;19.52;100.00
54600;BME280;40500;51.084;16.958;2022-08-24T05:09:34;100630.59;;;19.54;100.00
54600;BME280;40500;51.084;16.958;2022-08-24T05:12:08;100629.57;;;19.60;100.00
54600;BME280;40500;51.084;16.958;2022-08-24T05:14:35;100628.39;;;19.63;100.00
54600;BME280;40500;51.084;16.958;2022-08-24T05:17:04;100631.61;;;19.65;100.00
54600;BME280;40500;51.084;16.958;2022-08-24T05:19:37;100634.21;;;19.67;100.00
54600;BME280;40500;51.084;16.958;2022-08-24T05:22:06;100634.75;;;19.67;100.00
54600;BME280;40500;51.084;16.958;2022-08-24T05:24:34;100631.54;;;19.71;100.00
54600;BME280;40500;51.084;16.958;2022-08-24T05:27:07;100634.67;;;19.72;100.00
54600;BME280;40500;51.084;16.958;2022-08-24T05:29:44;100635.33;;;19.73;100.00
54600;BME280;40500;51.084;16.958;2022-08-24T05:32:17;100631.98;;;19.76;100.00
54600;BME280;40500;51.084;16.958;2022-08-24T05:34:47;100635.56;;;19.83;100.00
54600;BME280;40500;51.084;16.958;2022-08-24T05:37:17;100630.66;;;19.89;100.00
54600;BME280;40500;51.084;16.958;2022-08-24T05:39:47;100633.23;;;19.91;100.00
54600;BME280;40500;51.084;16.958;2022-08-24T05:42:15;100627.76;;;19.93;100.00
54600;BME280;40500;51.084;16.958;2022-08-24T05:44:43;100626.96;;;19.91;100.00
54600;BME280;40500;51.084;16.958;2022-08-24T05:47:15;100624.25;;;19.96;100.00
54600;BME280;40500;51.084;16.958;2022-08-24T05:49:43;100626.45;;;19.98;100.00
54600;BME280;40500;51.084;16.958;2022-08-24T05:52:12;100624.83;;;20.12;100.00
54600;BME280;40500;51.084;16.958;2022-08-24T05:54:51;100627.92;;;20.11;100.00
54600;BME280;40500;51.084;16.958;2022-08-24T05:57:25;100626.33;;;20.04;100.00
54600;BME280;40500;51.084;16.958;2022-08-24T05:59:57;100625.86;;;20.02;100.00
54600;BME280;40500;51.084;16.958;2022-08-24T06:02:35;100623.77;;;20.02;100.00
54600;BME280;40500;51.084;16.958;2022-08-24T06:05:08;100624.90;;;20.04;100.00
54600;BME280;40500;51.084;16.958;2022-08-24T06:07:42;100630.75;;;20.04;100.00
54600;BME280;40500;51.084;16.958;2022-08-24T06:10:11;100631.63;;;20.08;100.00
54600;BME280;40500;51.084;16.958;2022-08-24T06:12:59;100631.18;;;20.09;100.00
54600;BME280;40500;51.084;16.958;2022-08-24T06:15:28;100631.35;;;20.09;100.00
54600;BME280;40500;51.084;16.958;2022-08-24T06:17:57;100635.73;;;20.10;100.00
54600;BME280;40500;51.084;16.958;2022-08-24T06:20:28;100642.03;;;20.09;100.00
54600;BME280;40500;51.084;16.958;2022-08-24T06:22:56;100643.42;;;20.06;100.00
54600;BME280;40500;51.084;16.958;2022-08-24T06:25:24;100645.36;;;20.04;100.00
54600;BME280;40500;51.084;16.958;2022-08-24T06:28:10;100647.73;;;20.06;100.00
54600;BME280;40500;51.084;16.958;2022-08-24T06:30:38;100647.05;;;20.05;100.00
54600;BME280;40500;51.084;16.958;2022-08-24T06:33:05;100645.98;;;20.02;100.00
54600;BME280;40500;51.084;16.958;2022-08-24T06:35:33;100651.22;;;20.00;100.00
54600;BME280;40500;51.084;16.958;2022-08-24T06:38:01;100657.35;;;20.02;100.00
54600;BME280;40500;51.084;16.958;2022-08-24T06:40:29;100655.48;;;20.00;100.00
54600;BME280;40500;51.084;16.958;2022-08-24T06:43:01;100658.55;;;19.99;100.00
54600;BME280;40500;51.084;16.958;2022-08-24T06:45:30;100657.46;;;20.00;100.00
54600;BME280;40500;51.084;16.958;2022-08-24T06:47:58;100658.20;;;20.03;100.00
54600;BME280;40500;51.084;16.958;2022-08-24T06:50:27;100658.50;;;20.04;100.00
54600;BME280;40500;51.084;16.958;2022-08-24T06:52:54;100660.55;;;20.05;100.00
54600;BME280;40500;51.084;16.958;2022-08-24T06:55:22;100662.22;;;20.04;100.00
54600;BME280;40500;51.084;16.958;2022-08-24T06:57:50;100662.35;;;20.05;100.00
54600;BME280;40500;51.084;16.958;2022-08-24T07:00:20;100665.90;;;20.02;100.00
54600;BME280;40500;51.084;16.958;2022-08-24T07:02:48;100662.38;;;20.01;100.00
54600;BME280;40500;51.084;16.958;2022-08-24T07:05:16;100663.88;;;20.00;100.00
54600;BME280;40500;51.084;16.958;2022-08-24T07:07:44;100662.32;;;20.02;100.00
54600;BME280;40500;51.084;16.958;2022-08-24T07:10:12;100662.89;;;20.12;100.00
54600;BME280;40500;51.084;16.958;2022-08-24T07:12:39;100661.84;;;20.19;100.00
54600;BME280;40500;51.084;16.958;2022-08-24T07:15:08;100652.19;;;20.16;100.00
54600;BME280;40500;51.084;16.958;2022-08-24T07:17:43;100648.17;;;20.14;100.00
54600;BME280;40500;51.084;16.958;2022-08-24T07:20:12;100647.54;;;20.13;100.00
54600;BME280;40500;51.084;16.958;2022-08-24T07:22:40;100648.36;;;20.18;100.00
54600;BME280;40500;51.084;16.958;2022-08-24T07:25:10;100648.53;;;20.21;100.00
54600;BME280;40500;51.084;16.958;2022-08-24T07:27:38;100643.95;;;20.27;100.00
54600;BME280;40500;51.084;16.958;2022-08-24T07:30:10;100643.14;;;20.33;100.00
54600;BME280;40500;51.084;16.958;2022-08-24T07:32:55;100643.15;;;20.36;100.00
54600;BME280;40500;51.084;16.958;2022-08-24T07:35:23;100644.48;;;20.38;100.00
54600;BME280;40500;51.084;16.958;2022-08-24T07:37:52;100644.27;;;20.42;100.00
54600;BME280;40500;51.084;16.958;2022-08-24T07:40:21;100641.20;;;20.49;100.00
54600;BME280;40500;51.084;16.958;2022-08-24T07:42:50;100648.60;;;20.57;100.00
54600;BME280;40500;51.084;16.958;2022-08-24T07:45:19;100655.28;;;20.66;100.00
54600;BME280;40500;51.084;16.958;2022-08-24T07:47:47;100656.92;;;20.68;100.00
54600;BME280;40500;51.084;16.958;2022-08-24T07:50:22;100655.13;;;20.75;100.00
54600;BME280;40500;51.084;16.958;2022-08-24T07:52:50;100657.10;;;20.85;100.00
54600;BME280;40500;51.084;16.958;2022-08-24T07:55:18;100661.92;;;20.91;100.00
54600;BME280;40500;51.084;16.958;2022-08-24T07:57:46;100667.56;;;20.99;100.00
54600;BME280;40500;51.084;16.958;2022-08-24T08:00:16;100669.88;;;21.02;100.00
54600;BME280;40500;51.084;16.958;2022-08-24T08:02:46;100671.38;;;21.07;100.00
54600;BME280;40500;51.084;16.958;2022-08-24T08:05:17;100672.11;;;21.13;100.00
54600;BME280;40500;51.084;16.958;2022-08-24T08:07:44;100674.70;;;21.18;100.00
54600;BME280;40500;51.084;16.958;2022-08-24T08:10:16;100674.58;;;21.20;100.00
54600;BME280;40500;51.084;16.958;2022-08-24T08:12:43;100671.05;;;21.22;100.00
54600;BME280;40500;51.084;16.958;2022-08-24T08:15:11;100671.27;;;21.06;100.00
54600;BME280;40500;51.084;16.958;2022-08-24T08:17:39;100675.49;;;21.07;100.00
54600;BME280;40500;51.084;16.958;2022-08-24T08:20:09;100680.99;;;21.10;100.00
54600;BME280;40500;51.084;16.958;2022-08-24T08:22:37;100682.79;;;21.19;100.00
54600;BME280;40500;51.084;16.958;2022-08-24T08:25:23;100683.80;;;21.11;100.00
54600;BME280;40500;51.084;16.958;2022-08-24T08:27:50;100683.41;;;21.24;100.00
54600;BME280;40500;51.084;16.958;2022-08-24T08:30:18;100687.40;;;21.39;100.00
54600;BME280;40500;51.084;16.958;2022-08-24T08:32:46;100691.16;;;21.36;100.00
54600;BME280;40500;51.084;16.958;2022-08-24T08:35:14;100687.27;;;21.35;100.00
54600;BME280;40500;51.084;16.958;2022-08-24T08:37:42;100687.69;;;21.38;99.96
54600;BME280;40500;51.084;16.958;2022-08-24T08:40:21;100686.27;;;21.37;99.73
54600;BME280;40500;51.084;16.958;2022-08-24T08:43:00;100684.00;;;21.39;99.59
54600;BME280;40500;51.084;16.958;2022-08-24T08:45:38;100684.41;;;21.45;98.95
54600;BME280;40500;51.084;16.958;2022-08-24T08:54:33;100700.01;;;21.62;99.02
54600;BME280;40500;51.084;16.958;2022-08-24T08:57:13;100706.48;;;21.61;98.98
54600;BME280;40500;51.084;16.958;2022-08-24T08:59:55;100708.66;;;21.61;98.59
54600;BME280;40500;51.084;16.958;2022-08-24T09:05:50;100710.20;;;21.62;98.20
54600;BME280;40500;51.084;16.958;2022-08-24T09:08:34;100710.27;;;21.57;98.02
54600;BME280;40500;51.084;16.958;2022-08-24T09:11:09;100705.95;;;21.52;97.71
54600;BME280;40500;51.084;16.958;2022-08-24T09:14:02;100709.13;;;21.52;97.73
54600;BME280;40500;51.084;16.958;2022-08-24T09:16:44;100712.40;;;21.54;97.39
54600;BME280;40500;51.084;16.958;2022-08-24T09:19:29;100714.61;;;21.57;97.51
54600;BME280;40500;51.084;16.958;2022-08-24T09:22:10;100716.34;;;21.60;97.31
54600;BME280;40500;51.084;16.958;2022-08-24T09:24:49;100717.32;;;21.65;97.03
54600;BME280;40500;51.084;16.958;2022-08-24T09:27:29;100713.58;;;21.71;96.70
54600;BME280;40500;51.084;16.958;2022-08-24T09:30:09;100716.70;;;21.79;96.66
54600;BME280;40500;51.084;16.958;2022-08-24T09:32:57;100716.73;;;21.88;96.43
54600;BME280;40500;51.084;16.958;2022-08-24T09:35:34;100713.52;;;21.91;96.13
54600;BME280;40500;51.084;16.958;2022-08-24T09:38:23;100714.64;;;21.90;95.94
54600;BME280;40500;51.084;16.958;2022-08-24T09:41:18;100715.01;;;21.96;96.03
54600;BME280;40500;51.084;16.958;2022-08-24T09:44:15;100711.37;;;22.03;95.83
54600;BME280;40500;51.084;16.958;2022-08-24T09:47:33;100712.02;;;22.07;95.54
54600;BME280;40500;51.084;16.958;2022-08-24T09:50:40;100714.08;;;22.08;95.27
54600;BME280;40500;51.084;16.958;2022-08-24T09:56:44;100715.20;;;22.20;94.54
54600;BME280;40500;51.084;16.958;2022-08-24T09:59:45;100717.95;;;22.28;94.25
54600;BME280;40500;51.084;16.958;2022-08-24T10:02:31;100717.59;;;22.31;94.10
54600;BME280;40500;51.084;16.958;2022-08-24T10:05:07;100718.70;;;22.34;94.07
54600;BME280;40500;51.084;16.958;2022-08-24T10:07:46;100720.98;;;22.40;94.05
54600;BME280;40500;51.084;16.958;2022-08-24T10:10:25;100722.42;;;22.43;93.77
54600;BME280;40500;51.084;16.958;2022-08-24T10:13:04;100720.84;;;22.36;93.45
54600;BME280;40500;51.084;16.958;2022-08-24T10:15:40;100724.71;;;22.28;93.19
54600;BME280;40500;51.084;16.958;2022-08-24T10:18:22;100728.14;;;22.21;92.83
54600;BME280;40500;51.084;16.958;2022-08-24T10:21:08;100727.05;;;22.19;92.75
54600;BME280;40500;51.084;16.958;2022-08-24T10:23:49;100733.23;;;22.13;92.63
54600;BME280;40500;51.084;16.958;2022-08-24T10:26:29;100729.05;;;22.06;92.58
54600;BME280;40500;51.084;16.958;2022-08-24T10:29:21;100730.48;;;22.03;92.57
54600;BME280;40500;51.084;16.958;2022-08-24T10:32:06;100729.81;;;22.05;92.33
54600;BME280;40500;51.084;16.958;2022-08-24T10:34:51;100731.39;;;22.08;92.35
54600;BME280;40500;51.084;16.958;2022-08-24T10:37:40;100731.13;;;22.13;92.39
54600;BME280;40500;51.084;16.958;2022-08-24T10:40:28;100723.96;;;22.14;92.17
54600;BME280;40500;51.084;16.958;2022-08-24T10:43:41;100725.84;;;22.18;91.78
54600;BME280;40500;51.084;16.958;2022-08-24T10:46:39;100723.27;;;22.28;91.82
54600;BME280;40500;51.084;16.958;2022-08-24T10:49:44;100729.27;;;22.42;91.86
54600;BME280;40500;51.084;16.958;2022-08-24T10:52:35;100732.88;;;22.53;91.92
54600;BME280;40500;51.084;16.958;2022-08-24T10:55:18;100726.48;;;22.64;91.96
54600;BME280;40500;51.084;16.958;2022-08-24T10:57:54;100731.29;;;22.73;91.96
54600;BME280;40500;51.084;16.958;2022-08-24T11:00:28;100728.52;;;22.77;91.56
54600;BME280;40500;51.084;16.958;2022-08-24T11:03:09;100730.70;;;22.77;91.38
54600;BME280;40500;51.084;16.958;2022-08-24T11:05:40;100727.09;;;22.78;90.97
54600;BME280;40500;51.084;16.958;2022-08-24T11:08:16;100723.14;;;22.81;90.88
54600;BME280;40500;51.084;16.958;2022-08-24T11:10:46;100719.41;;;22.83;90.73
54600;BME280;40500;51.084;16.958;2022-08-24T11:13:29;100721.66;;;22.79;90.05
54600;BME280;40500;51.084;16.958;2022-08-24T11:15:59;100719.88;;;22.76;89.73
54600;BME280;40500;51.084;16.958;2022-08-24T11:18:46;100722.73;;;22.76;89.67
54600;BME280;40500;51.084;16.958;2022-08-24T11:21:16;100719.70;;;22.79;89.71
54600;BME280;40500;51.084;16.958;2022-08-24T11:23:46;100719.08;;;22.77;89.48
54600;BME280;40500;51.084;16.958;2022-08-24T11:26:21;100719.63;;;22.83;89.27
54600;BME280;40500;51.084;16.958;2022-08-24T11:28:52;100721.30;;;22.91;89.13
54600;BME280;40500;51.084;16.958;2022-08-24T11:31:31;100722.13;;;22.95;88.75
54600;BME280;40500;51.084;16.958;2022-08-24T11:34:05;100717.03;;;22.99;88.63
54600;BME280;40500;51.084;16.958;2022-08-24T11:36:37;100714.25;;;23.06;88.31
54600;BME280;40500;51.084;16.958;2022-08-24T11:39:16;100719.04;;;23.16;87.87
54600;BME280;40500;51.084;16.958;2022-08-24T11:41:53;100722.05;;;23.33;87.69
54600;BME280;40500;51.084;16.958;2022-08-24T11:44:36;100724.52;;;23.50;87.41
54600;BME280;40500;51.084;16.958;2022-08-24T11:47:29;100725.55;;;23.64;87.15
54600;BME280;40500;51.084;16.958;2022-08-24T11:50:11;100732.70;;;23.76;86.83
54600;BME280;40500;51.084;16.958;2022-08-24T11:52:53;100730.95;;;23.81;86.41
54600;BME280;40500;51.084;16.958;2022-08-24T11:55:30;100731.73;;;23.91;86.19
54600;BME280;40500;51.084;16.958;2022-08-24T11:58:33;100725.61;;;24.02;85.63
54600;BME280;40500;51.084;16.958;2022-08-24T12:01:10;100727.56;;;24.13;85.06
54600;BME280;40500;51.084;16.958;2022-08-24T12:03:49;100719.78;;;24.19;84.13
54600;BME280;40500;51.084;16.958;2022-08-24T12:06:28;100720.37;;;24.26;83.62
54600;BME280;40500;51.084;16.958;2022-08-24T12:09:08;100726.63;;;24.24;83.14
54600;BME280;40500;51.084;16.958;2022-08-24T12:11:45;100723.85;;;24.25;83.24
54600;BME280;40500;51.084;16.958;2022-08-24T12:14:21;100725.23;;;24.28;82.97
54600;BME280;40500;51.084;16.958;2022-08-24T12:16:54;100729.41;;;24.31;83.06
54600;BME280;40500;51.084;16.958;2022-08-24T12:19:27;100728.35;;;24.22;82.79
54600;BME280;40500;51.084;16.958;2022-08-24T12:21:59;100730.27;;;24.07;82.43
54600;BME280;40500;51.084;16.958;2022-08-24T12:24:33;100730.23;;;23.97;82.45
54600;BME280;40500;51.084;16.958;2022-08-24T12:27:07;100733.88;;;23.90;82.28
54600;BME280;40500;51.084;16.958;2022-08-24T12:29:41;100733.45;;;23.75;81.77
54600;BME280;40500;51.084;16.958;2022-08-24T12:32:15;100738.84;;;23.69;82.10
54600;BME280;40500;51.084;16.958;2022-08-24T12:34:50;100738.02;;;23.73;82.17
54600;BME280;40500;51.084;16.958;2022-08-24T12:37:27;100734.98;;;23.73;82.08
54600;BME280;40500;51.084;16.958;2022-08-24T12:40:04;100732.41;;;23.72;81.67
54600;BME280;40500;51.084;16.958;2022-08-24T12:42:40;100735.50;;;23.76;81.63
54600;BME280;40500;51.084;16.958;2022-08-24T12:45:12;100736.63;;;23.81;81.52
54600;BME280;40500;51.084;16.958;2022-08-24T12:47:45;100735.59;;;23.86;81.46
54600;BME280;40500;51.084;16.958;2022-08-24T12:50:23;100734.21;;;23.93;81.54
54600;BME280;40500;51.084;16.958;2022-08-24T12:53:16;100733.20;;;24.01;81.62
54600;BME280;40500;51.084;16.958;2022-08-24T12:56:08;100731.11;;;24.05;81.38
54600;BME280;40500;51.084;16.958;2022-08-24T12:58:55;100730.08;;;24.07;81.20
54600;BME280;40500;51.084;16.958;2022-08-24T13:01:26;100725.83;;;24.01;80.73
54600;BME280;40500;51.084;16.958;2022-08-24T13:04:07;100726.27;;;24.00;80.87
54600;BME280;40500;51.084;16.958;2022-08-24T13:06:40;100728.02;;;24.03;81.07
54600;BME280;40500;51.084;16.958;2022-08-24T13:09:15;100727.20;;;24.07;80.86
54600;BME280;40500;51.084;16.958;2022-08-24T13:11:43;100724.31;;;24.08;80.81
54600;BME280;40500;51.084;16.958;2022-08-24T13:14:19;100725.56;;;24.13;80.88
54600;BME280;40500;51.084;16.958;2022-08-24T13:17:06;100719.35;;;24.13;80.63
54600;BME280;40500;51.084;16.958;2022-08-24T13:19:38;100723.64;;;24.04;79.95